sensor_id;sensor_type;location;lat;lon;timestamp;temperature;humidity
21282;DHT22;10800;53.096;18.328;2023-08-01T00:01:42;19.20;99.90
21282;DHT22;10800;53.096;18.328;2023-08-01T00:06:48;19.10;99.90
21282;DHT22;10800;53.096;18.328;2023-08-01T00:11:53;19.20;99.90
21282;DHT22;10800;53.096;18.328;2023-08-01T00:16:59;19.10;99.90
21282;DHT22;10800;53.096;18.328;2023-08-01T00:22:05;19.10;99.90
21282;DHT22;10800;53.096;18.328;2023-08-01T00:27:11;19.10;99.90
21282;DHT22;10800;53.096;18.328;2023-08-01T00:32:16;19.10;99.90
21282;DHT22;10800;53.096;18.328;2023-08-01T00:37:22;19.00;99.90
21282;DHT22;10800;53.096;18.328;2023-08-01T00:42:28;19.00;99.90
21282;DHT22;10800;53.096;18.328;2023-08-01T00:47:35;18.90;99.90
21282;DHT22;10800;53.096;18.328;2023-08-01T00:52:40;18.90;99.90
21282;DHT22;10800;53.096;18.328;2023-08-01T00:57:46;18.90;99.90
21282;DHT22;10800;53.096;18.328;2023-08-01T01:02:52;18.80;99.90
21282;DHT22;10800;53.096;18.328;2023-08-01T01:07:57;18.90;99.90
21282;DHT22;10800;53.096;18.328;2023-08-01T01:13:03;18.90;99.90
21282;DHT22;10800;53.096;18.328;2023-08-01T01:18:08;18.90;99.90
21282;DHT22;10800;53.096;18.328;2023-08-01T01:23:15;18.80;99.90
21282;DHT22;10800;53.096;18.328;2023-08-01T01:28:21;18.80;99.90
21282;DHT22;10800;53.096;18.328;2023-08-01T01:33:27;18.80;99.90
21282;DHT22;10800;53.096;18.328;2023-08-01T01:38:33;18.70;99.90
21282;DHT22;10800;53.096;18.328;2023-08-01T01:43:39;18.70;99.90
21282;DHT22;10800;53.096;18.328;2023-08-01T01:48:45;18.70;99.90
21282;DHT22;10800;53.096;18.328;2023-08-01T01:53:50;18.80;99.90
21282;DHT22;10800;53.096;18.328;2023-08-01T01:58:55;18.70;99.90
21282;DHT22;10800;53.096;18.328;2023-08-01T02:04:01;18.70;99.90
21282;DHT22;10800;53.096;18.328;2023-08-01T02:09:07;18.80;99.90
21282;DHT22;10800;53.096;18.328;2023-08-01T02:14:13;18.70;99.90
21282;DHT22;10800;53.096;18.328;2023-08-01T02:19:20;18.70;99.90
21282;DHT22;10800;53.096;18.328;2023-08-01T02:24:25;18.70;99.90
21282;DHT22;10800;53.096;18.328;2023-08-01T02:29:31;18.70;99.90
21282;DHT22;10800;53.096;18.328;2023-08-01T02:34:36;18.60;99.90
21282;DHT22;10800;53.096;18.328;2023-08-01T02:39:42;18.60;99.90
21282;DHT22;10800;53.096;18.328;2023-08-01T02:44:48;18.50;99.90
21282;DHT22;10800;53.096;18.328;2023-08-01T02:49:54;18.40;99.90
21282;DHT22;10800;53.096;18.328;2023-08-01T02:54:59;18.40;99.90
21282;DHT22;10800;53.096;18.328;2023-08-01T03:00:05;18.30;99.90
21282;DHT22;10800;53.096;18.328;2023-08-01T03:05:16;18.30;99.90
21282;DHT22;10800;53.096;18.328;2023-08-01T03:10:37;18.30;99.90
21282;DHT22;10800;53.096;18.328;2023-08-01T03:15:44;18.30;99.90
21282;DHT22;10800;53.096;18.328;2023-08-01T03:20:51;18.20;99.90
21282;DHT22;10800;53.096;18.328;2023-08-01T03:25:57;18.20;99.90
21282;DHT22;10800;53.096;18.328;2023-08-01T03:31:03;18.20;99.90
21282;DHT22;10800;53.096;18.328;2023-08-01T03:36:15;18.30;99.90
21282;DHT22;10800;53.096;18.328;2023-08-01T03:41:36;18.30;99.90
21282;DHT22;10800;53.096;18.328;2023-08-01T03:47:02;18.30;99.90
21282;DHT22;10800;53.096;18.328;2023-08-01T03:52:14;18.30;99.90
21282;DHT22;10800;53.096;18.328;2023-08-01T03:57:19;18.30;99.90
21282;DHT22;10800;53.096;18.328;2023-08-01T04:02:25;18.40;99.90
21282;DHT22;10800;53.096;18.328;2023-08-01T04:07:30;18.40;99.90
21282;DHT22;10800;53.096;18.328;2023-08-01T04:12:37;18.30;99.90
21282;DHT22;10800;53.096;18.328;2023-08-01T04:17:52;18.20;99.90
21282;DHT22;10800;53.096;18.328;2023-08-01T04:23:22;18.10;99.90
21282;DHT22;10800;53.096;18.328;2023-08-01T04:28:33;18.10;99.90
21282;DHT22;10800;53.096;18.328;2023-08-01T04:33:44;18.10;99.90
21282;DHT22;10800;53.096;18.328;2023-08-01T04:38:52;18.10;99.90
21282;DHT22;10800;53.096;18.328;2023-08-01T04:44:15;18.00;99.90
21282;DHT22;10800;53.096;18.328;2023-08-01T04:49:24;18.10;99.90
21282;DHT22;10800;53.096;18.328;2023-08-01T04:54:48;18.10;99.90
21282;DHT22;10800;53.096;18.328;2023-08-01T05:00:03;18.10;99.90
21282;DHT22;10800;53.096;18.328;2023-08-01T05:05:12;18.10;99.90
21282;DHT22;10800;53.096;18.328;2023-08-01T05:10:26;18.00;99.90
21282;DHT22;10800;53.096;18.328;2023-08-01T05:16:00;18.00;99.90
21282;DHT22;10800;53.096;18.328;2023-08-01T05:21:11;18.00;99.90
21282;DHT22;10800;53.096;18.328;2023-08-01T05:26:29;18.00;99.90
21282;DHT22;10800;53.096;18.328;2023-08-01T05:31:45;18.00;99.90
21282;DHT22;10800;53.096;18.328;2023-08-01T05:37:17;17.90;99.90
21282;DHT22;10800;53.096;18.328;2023-08-01T05:42:31;17.90;99.90
21282;DHT22;10800;53.096;18.328;2023-08-01T05:47:40;17.80;99.90
21282;DHT22;10800;53.096;18.328;2023-08-01T05:52:52;17.80;99.90
21282;DHT22;10800;53.096;18.328;2023-08-01T05:58:10;17.70;99.90
21282;DHT22;10800;53.096;18.328;2023-08-01T06:03:35;17.70;99.90
21282;DHT22;10800;53.096;18.328;2023-08-01T06:09:13;17.70;99.90
21282;DHT22;10800;53.096;18.328;2023-08-01T06:15:06;17.70;99.90
21282;DHT22;10800;53.096;18.328;2023-08-01T06:20:49;17.70;99.90
21282;DHT22;10800;53.096;18.328;2023-08-01T06:26:22;17.70;99.90
21282;DHT22;10800;53.096;18.328;2023-08-01T06:32:10;17.70;99.90
21282;DHT22;10800;53.096;18.328;2023-08-01T06:37:34;17.70;99.90
21282;DHT22;10800;53.096;18.328;2023-08-01T06:43:22;17.60;99.90
21282;DHT22;10800;53.096;18.328;2023-08-01T06:48:53;17.60;99.90
21282;DHT22;10800;53.096;18.328;2023-08-01T06:54:13;17.60;99.90
21282;DHT22;10800;53.096;18.328;2023-08-01T06:59:59;17.60;99.90
21282;DHT22;10800;53.096;18.328;2023-08-01T07:05:42;17.50;99.90
21282;DHT22;10800;53.096;18.328;2023-08-01T07:11:08;17.60;99.90
21282;DHT22;10800;53.096;18.328;2023-08-01T07:16:35;17.70;99.90
21282;DHT22;10800;53.096;18.328;2023-08-01T07:22:06;17.80;99.90
21282;DHT22;10800;53.096;18.328;2023-08-01T07:27:48;18.00;99.90
21282;DHT22;10800;53.096;18.328;2023-08-01T07:33:09;18.10;99.90
21282;DHT22;10800;53.096;18.328;2023-08-01T07:38:46;18.20;99.90
21282;DHT22;10800;53.096;18.328;2023-08-01T07:44:36;18.10;99.90
21282;DHT22;10800;53.096;18.328;2023-08-01T07:49:58;18.10;99.90
21282;DHT22;10800;53.096;18.328;2023-08-01T07:55:28;18.10;99.90
21282;DHT22;10800;53.096;18.328;2023-08-01T08:01:23;18.00;99.90
21282;DHT22;10800;53.096;18.328;2023-08-01T08:06:55;18.10;99.90
21282;DHT22;10800;53.096;18.328;2023-08-01T08:12:16;18.10;99.90
21282;DHT22;10800;53.096;18.328;2023-08-01T08:18:20;18.30;99.90
21282;DHT22;10800;53.096;18.328;2023-08-01T08:23:42;18.40;99.90
21282;DHT22;10800;53.096;18.328;2023-08-01T08:35:20;18.40;99.90
21282;DHT22;10800;53.096;18.328;2023-08-01T08:41:30;18.50;99.90
21282;DHT22;10800;53.096;18.328;2023-08-01T08:46:52;18.50;99.90
21282;DHT22;10800;53.096;18.328;2023-08-01T08:52:41;18.50;99.90
21282;DHT22;10800;53.096;18.328;2023-08-01T08:58:16;18.50;99.90
21282;DHT22;10800;53.096;18.328;2023-08-01T09:03:50;18.50;99.90
21282;DHT22;10800;53.096;18.328;2023-08-01T09:09:55;18.60;99.90
21282;DHT22;10800;53.096;18.328;2023-08-01T09:15:12;18.60;99.90
21282;DHT22;10800;53.096;18.328;2023-08-01T09:21:03;18.70;99.90
21282;DHT22;10800;53.096;18.328;2023-08-01T09:26:52;18.80;99.90
21282;DHT22;10800;53.096;18.328;2023-08-01T09:38:13;19.30;99.90
21282;DHT22;10800;53.096;18.328;2023-08-01T09:43:53;19.60;99.90
21282;DHT22;10800;53.096;18.328;2023-08-01T09:49:25;19.70;99.90
21282;DHT22;10800;53.096;18.328;2023-08-01T10:01:14;20.30;99.90
21282;DHT22;10800;53.096;18.328;2023-08-01T10:06:32;20.00;99.90
21282;DHT22;10800;53.096;18.328;2023-08-01T10:11:47;19.80;99.90
21282;DHT22;10800;53.096;18.328;2023-08-01T10:17:21;19.60;99.90
21282;DHT22;10800;53.096;18.328;2023-08-01T10:22:50;19.60;99.90
21282;DHT22;10800;53.096;18.328;2023-08-01T10:28:52;19.50;99.90
21282;DHT22;10800;53.096;18.328;2023-08-01T10:34:39;19.50;99.90
21282;DHT22;10800;53.096;18.328;2023-08-01T10:40:31;19.60;99.90
21282;DHT22;10800;53.096;18.328;2023-08-01T10:46:03;19.90;99.90
21282;DHT22;10800;53.096;18.328;2023-08-01T10:51:35;20.40;99.90
21282;DHT22;10800;53.096;18.328;2023-08-01T10:56:53;20.70;99.90
21282;DHT22;10800;53.096;18.328;2023-08-01T11:02:12;20.80;99.90
21282;DHT22;10800;53.096;18.328;2023-08-01T11:07:32;20.30;99.90
21282;DHT22;10800;53.096;18.328;2023-08-01T11:13:20;20.10;99.90
21282;DHT22;10800;53.096;18.328;2023-08-01T11:19:35;20.30;99.90
21282;DHT22;10800;53.096;18.328;2023-08-01T11:25:07;20.60;99.90
21282;DHT22;10800;53.096;18.328;2023-08-01T11:41:54;19.90;99.90
21282;DHT22;10800;53.096;18.328;2023-08-01T11:47:20;19.30;99.90
21282;DHT22;10800;53.096;18.328;2023-08-01T11:53:01;19.00;99.90
21282;DHT22;10800;53.096;18.328;2023-08-01T11:58:40;18.80;99.90
21282;DHT22;10800;53.096;18.328;2023-08-01T12:03:57;18.80;99.90
21282;DHT22;10800;53.096;18.328;2023-08-01T12:09:57;18.80;99.90
21282;DHT22;10800;53.096;18.328;2023-08-01T12:15:30;18.70;99.90
21282;DHT22;10800;53.096;18.328;2023-08-01T12:20:47;18.90;99.90
21282;DHT22;10800;53.096;18.328;2023-08-01T12:26:17;19.00;99.90
21282;DHT22;10800;53.096;18.328;2023-08-01T12:31:48;19.00;99.90
21282;DHT22;10800;53.096;18.328;2023-08-01T12:37:30;19.00;99.90
21282;DHT22;10800;53.096;18.328;2023-08-01T12:43:08;18.90;99.90
21282;DHT22;10800;53.096;18.328;2023-08-01T12:48:53;18.90;99.90
21282;DHT22;10800;53.096;18.328;2023-08-01T12:54:20;19.00;99.90
21282;DHT22;10800;53.096;18.328;2023-08-01T12:59:47;19.10;99.90
21282;DHT22;10800;53.096;18.328;2023-08-01T13:05:13;19.30;99.90
21282;DHT22;10800;53.096;18.328;2023-08-01T13:10:32;19.40;99.90
21282;DHT22;10800;53.096;18.328;2023-08-01T13:16:05;19.50;99.90
21282;DHT22;10800;53.096;18.328;2023-08-01T13:21:21;19.60;99.90
21282;DHT22;10800;53.096;18.328;2023-08-01T13:26:54;20.10;99.90
21282;DHT22;10800;53.096;18.328;2023-08-01T13:32:20;20.60;99.90
21282;DHT22;10800;53.096;18.328;2023-08-01T13:37:51;20.80;99.90
21282;DHT22;10800;53.096;18.328;2023-08-01T13:43:22;21.00;99.90
21282;DHT22;10800;53.096;18.328;2023-08-01T13:48:49;20.80;99.90
21282;DHT22;10800;53.096;18.328;2023-08-01T13:54:39;20.70;99.90
21282;DHT22;10800;53.096;18.328;2023-08-01T14:12:20;20.30;99.90
21282;DHT22;10800;53.096;18.328;2023-08-01T14:18:07;20.30;99.90
21282;DHT22;10800;53.096;18.328;2023-08-01T14:23:42;20.20;99.90
21282;DHT22;10800;53.096;18.328;2023-08-01T14:29:25;20.20;99.90
21282;DHT22;10800;53.096;18.328;2023-08-01T14:35:20;20.20;99.90
21282;DHT22;10800;53.096;18.328;2023-08-01T14:41:18;20.00;99.90
21282;DHT22;10800;53.096;18.328;2023-08-01T14:46:59;19.80;99.90
21282;DHT22;10800;53.096;18.328;2023-08-01T14:52:11;19.70;99.90
21282;DHT22;10800;53.096;18.328;2023-08-01T14:57:23;19.70;99.90
21282;DHT22;10800;53.096;18.328;2023-08-01T15:03:11;19.60;99.90
21282;DHT22;10800;53.096;18.328;2023-08-01T15:08:24;19.50;99.90
21282;DHT22;10800;53.096;18.328;2023-08-01T15:13:52;19.80;99.90
21282;DHT22;10800;53.096;18.328;2023-08-01T15:19:17;20.20;99.90
21282;DHT22;10800;53.096;18.328;2023-08-01T15:24:38;20.60;99.90
21282;DHT22;10800;53.096;18.328;2023-08-01T15:29:54;20.70;99.90
21282;DHT22;10800;53.096;18.328;2023-08-01T15:35:45;20.70;99.90
21282;DHT22;10800;53.096;18.328;2023-08-01T15:41:21;20.40;99.90
21282;DHT22;10800;53.096;18.328;2023-08-01T15:47:13;20.20;99.90
21282;DHT22;10800;53.096;18.328;2023-08-01T15:52:59;20.30;99.90
21282;DHT22;10800;53.096;18.328;2023-08-01T15:58:34;20.30;99.90
21282;DHT22;10800;53.096;18.328;2023-08-01T16:04:16;20.20;99.90
21282;DHT22;10800;53.096;18.328;2023-08-01T16:15:59;20.70;99.90
21282;DHT22;10800;53.096;18.328;2023-08-01T16:21:35;20.90;99.90
21282;DHT22;10800;53.096;18.328;2023-08-01T16:27:30;21.00;99.90
21282;DHT22;10800;53.096;18.328;2023-08-01T16:33:01;20.90;99.90
21282;DHT22;10800;53.096;18.328;2023-08-01T16:38:41;20.60;99.90
21282;DHT22;10800;53.096;18.328;2023-08-01T16:44:29;20.50;99.90
21282;DHT22;10800;53.096;18.328;2023-08-01T16:50:24;20.60;99.90
21282;DHT22;10800;53.096;18.328;2023-08-01T16:56:03;20.50;99.90
21282;DHT22;10800;53.096;18.328;2023-08-01T17:01:30;20.50;99.90
21282;DHT22;10800;53.096;18.328;2023-08-01T17:07:08;20.40;99.90
21282;DHT22;10800;53.096;18.328;2023-08-01T17:12:38;20.40;99.90
21282;DHT22;10800;53.096;18.328;2023-08-01T17:18:05;20.40;99.90
21282;DHT22;10800;53.096;18.328;2023-08-01T17:23:50;20.30;99.90
21282;DHT22;10800;53.096;18.328;2023-08-01T17:29:24;20.30;99.90
21282;DHT22;10800;53.096;18.328;2023-08-01T17:34:52;20.30;99.90
21282;DHT22;10800;53.096;18.328;2023-08-01T17:40:28;20.30;99.90
21282;DHT22;10800;53.096;18.328;2023-08-01T17:46:05;20.10;99.90
21282;DHT22;10800;53.096;18.328;2023-08-01T17:51:40;20.00;99.90
21282;DHT22;10800;53.096;18.328;2023-08-01T17:56:57;19.90;99.90
21282;DHT22;10800;53.096;18.328;2023-08-01T18:02:17;19.80;99.90
21282;DHT22;10800;53.096;18.328;2023-08-01T18:08:06;19.80;99.90
21282;DHT22;10800;53.096;18.328;2023-08-01T18:13:42;19.70;99.90
21282;DHT22;10800;53.096;18.328;2023-08-01T18:19:01;19.60;99.90
21282;DHT22;10800;53.096;18.328;2023-08-01T18:24:23;19.50;99.90
21282;DHT22;10800;53.096;18.328;2023-08-01T18:29:39;19.50;99.90
21282;DHT22;10800;53.096;18.328;2023-08-01T18:34:55;19.50;99.90
21282;DHT22;10800;53.096;18.328;2023-08-01T18:40:04;19.40;99.90
21282;DHT22;10800;53.096;18.328;2023-08-01T18:45:57;19.40;99.90
21282;DHT22;10800;53.096;18.328;2023-08-01T18:51:16;19.30;99.90
21282;DHT22;10800;53.096;18.328;2023-08-01T18:56:42;19.30;99.90
21282;DHT22;10800;53.096;18.328;2023-08-01T19:02:14;19.10;99.90
21282;DHT22;10800;53.096;18.328;2023-08-01T19:07:39;18.80;99.90
21282;DHT22;10800;53.096;18.328;2023-08-01T19:12:59;18.50;99.90
21282;DHT22;10800;53.096;18.328;2023-08-01T19:18:54;18.40;99.90
21282;DHT22;10800;53.096;18.328;2023-08-01T19:24:19;18.40;99.90
21282;DHT22;10800;53.096;18.328;2023-08-01T19:29:51;18.40;99.90
21282;DHT22;10800;53.096;18.328;2023-08-01T19:35:17;18.30;99.90
21282;DHT22;10800;53.096;18.328;2023-08-01T19:40:49;18.30;99.90
21282;DHT22;10800;53.096;18.328;2023-08-01T19:46:18;18.10;99.90
21282;DHT22;10800;53.096;18.328;2023-08-01T19:51:51;17.90;99.90
21282;DHT22;10800;53.096;18.328;2023-08-01T19:57:21;17.80;99.90
21282;DHT22;10800;53.096;18.328;2023-08-01T20:02:43;17.70;99.90
21282;DHT22;10800;53.096;18.328;2023-08-01T20:07:54;17.60;99.90
21282;DHT22;10800;53.096;18.328;2023-08-01T20:13:11;17.60;99.90
21282;DHT22;10800;53.096;18.328;2023-08-01T20:18:31;17.50;99.90
21282;DHT22;10800;53.096;18.328;2023-08-01T20:24:20;17.50;99.90
21282;DHT22;10800;53.096;18.328;2023-08-01T20:30:17;17.50;99.90
21282;DHT22;10800;53.096;18.328;2023-08-01T20:35:57;17.40;99.90
21282;DHT22;10800;53.096;18.328;2023-08-01T20:41:30;17.50;99.90
21282;DHT22;10800;53.096;18.328;2023-08-01T20:46:54;17.40;99.90
21282;DHT22;10800;53.096;18.328;2023-08-01T20:52:28;17.40;99.90
21282;DHT22;10800;53.096;18.328;2023-08-01T20:57:46;17.40;99.90
21282;DHT22;10800;53.096;18.328;2023-08-01T21:03:00;17.30;99.90
21282;DHT22;10800;53.096;18.328;2023-08-01T21:08:12;17.20;99.90
21282;DHT22;10800;53.096;18.328;2023-08-01T21:13:22;17.20;99.90
21282;DHT22;10800;53.096;18.328;2023-08-01T21:18:37;17.20;99.90
21282;DHT22;10800;53.096;18.328;2023-08-01T21:23:51;17.10;99.90
21282;DHT22;10800;53.096;18.328;2023-08-01T21:29:02;17.10;99.90
21282;DHT22;10800;53.096;18.328;2023-08-01T21:34:31;17.00;99.90
21282;DHT22;10800;53.096;18.328;2023-08-01T21:40:05;16.90;99.90
21282;DHT22;10800;53.096;18.328;2023-08-01T21:45:14;16.80;99.90
21282;DHT22;10800;53.096;18.328;2023-08-01T21:50:31;16.80;99.90
21282;DHT22;10800;53.096;18.328;2023-08-01T21:55:40;16.70;99.90
21282;DHT22;10800;53.096;18.328;2023-08-01T22:00:51;16.60;99.90
21282;DHT22;10800;53.096;18.328;2023-08-01T22:06:04;16.50;99.90
21282;DHT22;10800;53.096;18.328;2023-08-01T22:11:18;16.40;99.90
21282;DHT22;10800;53.096;18.328;2023-08-01T22:16:29;16.40;99.90
21282;DHT22;10800;53.096;18.328;2023-08-01T22:21:40;16.40;99.90
21282;DHT22;10800;53.096;18.328;2023-08-01T22:27:17;16.40;99.90
21282;DHT22;10800;53.096;18.328;2023-08-01T22:32:30;16.40;99.90
21282;DHT22;10800;53.096;18.328;2023-08-01T22:37:44;16.30;99.90
21282;DHT22;10800;53.096;18.328;2023-08-01T22:42:59;16.30;99.90
21282;DHT22;10800;53.096;18.328;2023-08-01T22:48:18;16.20;99.90
21282;DHT22;10800;53.096;18.328;2023-08-01T22:53:31;16.00;99.90
21282;DHT22;10800;53.096;18.328;2023-08-01T22:58:51;15.90;99.90
21282;DHT22;10800;53.096;18.328;2023-08-01T23:04:09;15.80;99.90
21282;DHT22;10800;53.096;18.328;2023-08-01T23:09:28;15.70;99.90
21282;DHT22;10800;53.096;18.328;2023-08-01T23:14:51;15.60;99.90
21282;DHT22;10800;53.096;18.328;2023-08-01T23:20:03;15.60;99.90
21282;DHT22;10800;53.096;18.328;2023-08-01T23:25:36;15.50;99.90
21282;DHT22;10800;53.096;18.328;2023-08-01T23:31:02;15.40;99.90
21282;DHT22;10800;53.096;18.328;2023-08-01T23:36:14;15.40;99.90
21282;DHT22;10800;53.096;18.328;2023-08-01T23:41:26;15.30;99.90
21282;DHT22;10800;53.096;18.328;2023-08-01T23:46:45;15.30;99.90
21282;DHT22;10800;53.096;18.328;2023-08-01T23:52:04;15.20;99.90
21282;DHT22;10800;53.096;18.328;2023-08-01T23:57:20;15.20;99.90
